createdAt,value
2017-07-25T00:00:48.989Z,14.50
2017-07-25T00:03:16.426Z,14.50
2017-07-25T00:05:43.870Z,14.70
2017-07-25T00:08:11.318Z,14.60
2017-07-25T00:10:38.770Z,14.60
2017-07-25T00:13:06.215Z,14.70
2017-07-25T00:15:33.663Z,14.70
2017-07-25T00:18:01.104Z,14.80
2017-07-25T00:20:29.315Z,14.70
2017-07-25T00:22:56.765Z,14.70
2017-07-25T00:25:24.211Z,14.60
2017-07-25T00:27:51.655Z,14.60
2017-07-25T00:30:19.870Z,14.50
2017-07-25T00:32:47.311Z,14.50
2017-07-25T00:35:14.754Z,14.40
2017-07-25T00:37:42.198Z,14.30
2017-07-25T00:40:09.648Z,14.40
2017-07-25T00:42:37.095Z,14.40
2017-07-25T00:45:05.308Z,14.30
2017-07-25T00:47:32.765Z,14.30
2017-07-25T00:50:00.208Z,14.30
2017-07-25T00:52:27.667Z,14.40
2017-07-25T00:54:55.105Z,14.40
2017-07-25T00:57:23.311Z,14.60
2017-07-25T00:59:50.762Z,14.50
2017-07-25T01:02:18.203Z,14.50
2017-07-25T01:04:45.652Z,14.20
2017-07-25T01:07:13.083Z,14.20
2017-07-25T01:09:41.306Z,14.20
2017-07-25T01:12:08.747Z,14.20
2017-07-25T01:14:36.200Z,14.30
2017-07-25T01:17:03.634Z,14.20
2017-07-25T01:19:31.847Z,14.20
2017-07-25T01:21:59.291Z,14.20
2017-07-25T01:24:26.730Z,14.20
2017-07-25T01:26:54.179Z,14.30
2017-07-25T01:29:22.423Z,14.10
2017-07-25T01:31:49.868Z,14.10
2017-07-25T01:34:17.315Z,14.10
2017-07-25T01:36:44.759Z,14.00
2017-07-25T01:39:12.828Z,14.20
2017-07-25T01:41:40.283Z,14.10
2017-07-25T01:44:07.727Z,14.20
2017-07-25T01:46:35.218Z,14.20
2017-07-25T01:49:02.660Z,14.30
2017-07-25T01:51:30.108Z,14.40
2017-07-25T01:53:57.567Z,14.40
2017-07-25T01:56:25.008Z,14.40
2017-07-25T01:58:52.446Z,14.40
2017-07-25T02:01:19.895Z,14.40
2017-07-25T02:03:48.111Z,14.10
2017-07-25T02:06:15.550Z,14.10
2017-07-25T02:08:42.990Z,14.00
2017-07-25T02:11:10.437Z,13.90
2017-07-25T02:13:38.647Z,14.00
2017-07-25T02:16:06.090Z,14.00
2017-07-25T02:18:33.524Z,14.00
2017-07-25T02:21:01.738Z,14.10
2017-07-25T02:23:29.178Z,14.00
2017-07-25T02:25:56.623Z,14.10
2017-07-25T02:28:24.059Z,14.20
2017-07-25T02:30:52.275Z,14.30
2017-07-25T02:33:19.720Z,14.20
2017-07-25T02:35:47.163Z,14.20
2017-07-25T02:38:14.598Z,14.10
2017-07-25T02:40:42.819Z,14.20
2017-07-25T02:43:10.262Z,14.20
2017-07-25T02:45:37.703Z,14.20
2017-07-25T02:48:05.148Z,14.20
2017-07-25T02:50:34.155Z,14.30
2017-07-25T02:53:01.608Z,14.30
2017-07-25T02:55:29.052Z,14.20
2017-07-25T02:57:57.262Z,14.20
2017-07-25T03:00:24.697Z,14.20
2017-07-25T03:02:52.139Z,14.20
2017-07-25T03:05:20.351Z,14.20
2017-07-25T03:07:47.807Z,14.20
2017-07-25T03:10:15.243Z,14.20
2017-07-25T03:12:42.680Z,14.30
2017-07-25T03:15:10.891Z,14.40
2017-07-25T03:17:38.341Z,14.40
2017-07-25T03:20:05.787Z,14.30
2017-07-25T03:22:33.218Z,14.20
2017-07-25T03:25:01.435Z,13.90
2017-07-25T03:27:28.874Z,13.90
2017-07-25T03:29:56.322Z,14.00
2017-07-25T03:32:23.765Z,14.00
2017-07-25T03:34:51.974Z,14.00
2017-07-25T03:37:19.422Z,14.00
2017-07-25T03:39:46.874Z,13.90
2017-07-25T03:42:14.331Z,14.00
2017-07-25T03:44:41.779Z,14.00
2017-07-25T03:47:09.224Z,14.00
2017-07-25T03:49:37.435Z,14.00
2017-07-25T03:52:04.885Z,14.00
2017-07-25T03:54:32.326Z,14.00
2017-07-25T03:56:59.772Z,14.00
2017-07-25T03:59:27.214Z,13.90
2017-07-25T04:01:55.428Z,14.00
2017-07-25T04:04:22.882Z,13.90
2017-07-25T04:06:50.342Z,14.00
2017-07-25T04:09:17.774Z,14.10
2017-07-25T04:11:45.218Z,14.10
2017-07-25T04:14:13.438Z,14.00
2017-07-25T04:16:40.882Z,14.00
2017-07-25T04:19:08.340Z,14.00
2017-07-25T04:21:35.779Z,14.00
2017-07-25T04:24:03.237Z,14.10
2017-07-25T04:26:30.680Z,14.00
2017-07-25T04:28:58.119Z,13.90
2017-07-25T04:31:26.323Z,14.00
2017-07-25T04:33:53.767Z,13.90
2017-07-25T04:36:21.203Z,14.00
2017-07-25T04:38:49.403Z,14.30
2017-07-25T04:41:16.851Z,14.20
2017-07-25T04:43:44.295Z,14.40
2017-07-25T04:46:12.514Z,14.20
2017-07-25T04:48:39.946Z,14.20
2017-07-25T04:51:07.390Z,14.30
2017-07-25T04:53:34.873Z,14.40
2017-07-25T04:56:02.310Z,14.40
2017-07-25T04:58:29.746Z,14.50
2017-07-25T05:00:57.958Z,14.50
2017-07-25T05:03:25.410Z,14.50
2017-07-25T05:05:52.847Z,14.60
2017-07-25T05:08:20.290Z,14.60
2017-07-25T05:10:48.503Z,14.60
2017-07-25T05:13:15.960Z,14.60
2017-07-25T05:15:43.403Z,14.50
2017-07-25T05:18:10.848Z,14.50
2017-07-25T05:20:38.283Z,14.50
2017-07-25T05:23:06.510Z,14.60
2017-07-25T05:25:33.955Z,14.60
2017-07-25T05:28:01.395Z,14.70
2017-07-25T05:30:28.842Z,14.70
2017-07-25T05:32:56.283Z,14.50
2017-07-25T05:35:24.500Z,14.50
2017-07-25T05:37:51.935Z,14.50
2017-07-25T05:40:19.391Z,14.70
2017-07-25T05:42:46.831Z,14.60
2017-07-25T05:45:15.043Z,14.60
2017-07-25T05:47:42.483Z,14.60
2017-07-25T05:50:09.936Z,14.70
2017-07-25T05:52:37.371Z,14.70
2017-07-25T05:55:05.595Z,14.90
2017-07-25T05:57:33.039Z,14.90
2017-07-25T06:00:00.479Z,14.90
2017-07-25T06:02:27.943Z,14.70
2017-07-25T06:04:55.379Z,14.80
2017-07-25T06:07:22.819Z,14.90
2017-07-25T06:09:51.019Z,15.20
2017-07-25T06:12:18.462Z,15.10
2017-07-25T06:14:45.906Z,15.00
2017-07-25T06:17:14.118Z,15.20
2017-07-25T06:19:41.564Z,15.10
2017-07-25T06:22:09.020Z,15.10
2017-07-25T06:24:36.473Z,15.30
2017-07-25T06:27:03.915Z,15.10
2017-07-25T06:29:31.359Z,15.10
2017-07-25T06:31:58.799Z,15.30
2017-07-25T06:34:26.247Z,15.30
2017-07-25T06:36:53.691Z,15.20
2017-07-25T06:39:21.138Z,15.40
2017-07-25T06:41:48.579Z,15.40
2017-07-25T06:44:16.039Z,15.40
2017-07-25T06:46:43.479Z,15.30
2017-07-25T06:49:10.928Z,15.40
2017-07-25T06:51:38.358Z,15.40
2017-07-25T06:54:06.590Z,15.50
2017-07-25T06:56:34.036Z,15.50
2017-07-25T06:59:01.484Z,15.70
2017-07-25T07:01:28.923Z,15.70
2017-07-25T07:03:56.374Z,15.70
2017-07-25T07:06:24.587Z,15.50
2017-07-25T07:08:52.031Z,15.50
2017-07-25T07:11:19.495Z,15.70
2017-07-25T07:13:46.930Z,15.70
2017-07-25T07:16:14.366Z,15.60
2017-07-25T07:18:41.810Z,15.70
2017-07-25T07:21:10.036Z,15.70
2017-07-25T07:23:37.471Z,15.60
2017-07-25T07:26:04.915Z,15.70
2017-07-25T07:28:32.361Z,15.70
2017-07-25T07:31:00.577Z,15.80
2017-07-25T07:33:28.022Z,15.80
2017-07-25T07:35:55.458Z,15.60
2017-07-25T07:38:22.907Z,15.50
2017-07-25T07:40:51.114Z,15.40
2017-07-25T07:43:18.570Z,15.40
2017-07-25T07:45:46.021Z,15.50
2017-07-25T07:48:13.498Z,15.40
2017-07-25T07:50:40.943Z,15.40
2017-07-25T07:53:08.415Z,15.40
2017-07-25T07:55:35.851Z,15.60
2017-07-25T07:58:03.301Z,15.40
2017-07-25T08:00:30.768Z,15.60
2017-07-25T08:02:58.216Z,15.70
2017-07-25T08:05:25.650Z,15.90
2017-07-25T08:07:53.091Z,15.90
2017-07-25T08:10:21.299Z,15.90
2017-07-25T08:12:48.735Z,15.90
2017-07-25T08:15:16.184Z,15.80
2017-07-25T08:17:44.390Z,15.80
2017-07-25T08:20:11.850Z,15.70
2017-07-25T08:22:39.303Z,15.90
2017-07-25T08:25:06.748Z,15.80
2017-07-25T08:27:34.213Z,15.90
2017-07-25T08:30:01.638Z,15.90
2017-07-25T08:32:29.088Z,15.90
2017-07-25T08:34:56.529Z,16.00
2017-07-25T08:37:23.970Z,16.00
2017-07-25T08:39:51.406Z,16.00
2017-07-25T08:42:18.850Z,16.00
2017-07-25T08:44:46.294Z,16.10
2017-07-25T08:47:13.836Z,16.00
2017-07-25T08:49:41.293Z,16.00
2017-07-25T08:52:08.722Z,15.90
2017-07-25T08:54:36.166Z,16.10
2017-07-25T08:57:03.611Z,16.00
2017-07-25T08:59:31.054Z,16.10
2017-07-25T09:01:58.499Z,16.40
2017-07-25T09:04:25.955Z,16.20
2017-07-25T09:06:53.391Z,16.30
2017-07-25T09:09:20.838Z,16.30
2017-07-25T09:11:48.275Z,16.40
2017-07-25T09:14:16.479Z,16.50
2017-07-25T09:16:43.923Z,16.40
2017-07-25T09:19:11.359Z,16.50
2017-07-25T09:21:39.573Z,16.20
2017-07-25T09:24:07.010Z,16.20
2017-07-25T09:26:34.471Z,16.20
2017-07-25T09:29:01.907Z,16.00
2017-07-25T09:31:30.123Z,16.10
2017-07-25T09:33:57.567Z,16.00
2017-07-25T09:36:25.011Z,16.10
2017-07-25T09:38:52.442Z,16.10
2017-07-25T09:41:20.668Z,16.10
2017-07-25T09:43:48.104Z,16.10
2017-07-25T09:46:15.535Z,16.10
2017-07-25T09:48:43.750Z,16.00
2017-07-25T09:51:11.199Z,16.00
2017-07-25T09:53:38.638Z,16.00
2017-07-25T09:56:06.083Z,16.10
2017-07-25T09:58:34.298Z,16.40
2017-07-25T10:01:01.731Z,16.40
2017-07-25T10:03:29.171Z,16.50
2017-07-25T10:05:57.382Z,16.70
2017-07-25T10:08:24.851Z,16.70
2017-07-25T10:10:52.297Z,16.80
2017-07-25T10:13:19.734Z,16.90
2017-07-25T10:15:47.183Z,17.00
2017-07-25T10:18:14.620Z,16.90
2017-07-25T10:20:42.835Z,17.40
2017-07-25T10:23:10.275Z,17.40
2017-07-25T10:25:37.724Z,17.10
2017-07-25T10:28:05.163Z,16.80
2017-07-25T10:30:33.375Z,17.00
2017-07-25T10:33:00.812Z,17.00
2017-07-25T10:35:28.611Z,16.60
2017-07-25T10:37:56.111Z,16.60
2017-07-25T10:40:24.325Z,16.70
2017-07-25T10:42:51.772Z,16.70
2017-07-25T10:45:19.210Z,16.90
2017-07-25T10:47:46.672Z,17.20
2017-07-25T10:50:14.115Z,17.40
2017-07-25T10:52:42.335Z,17.40
2017-07-25T10:55:09.774Z,17.40
2017-07-25T10:57:37.214Z,17.50
2017-07-25T11:00:04.660Z,17.20
2017-07-25T11:02:32.871Z,16.90
2017-07-25T11:05:00.323Z,16.90
2017-07-25T11:07:27.799Z,16.60
2017-07-25T11:09:55.234Z,16.50
2017-07-25T11:12:22.678Z,16.30
2017-07-25T11:14:50.130Z,16.10
2017-07-25T11:17:17.579Z,15.90
2017-07-25T11:19:45.036Z,15.90
2017-07-25T11:22:12.472Z,15.90
2017-07-25T11:24:40.691Z,15.70
2017-07-25T11:27:08.141Z,15.70
2017-07-25T11:29:35.580Z,15.60
2017-07-25T11:32:03.018Z,15.60
2017-07-25T11:34:31.232Z,15.60
2017-07-25T11:36:58.688Z,15.60
2017-07-25T11:39:26.143Z,15.80
2017-07-25T11:41:53.586Z,15.90
2017-07-25T11:44:21.054Z,15.90
2017-07-25T11:46:48.486Z,16.10
2017-07-25T11:49:15.967Z,16.20
2017-07-25T11:51:43.413Z,16.20
2017-07-25T11:54:10.875Z,16.10
2017-07-25T11:56:38.323Z,16.10
2017-07-25T11:59:05.779Z,16.00
2017-07-25T12:01:33.251Z,15.70
2017-07-25T12:04:00.816Z,15.80
2017-07-25T12:06:28.263Z,15.90
2017-07-25T12:08:55.722Z,15.90
2017-07-25T12:11:23.185Z,16.10
2017-07-25T12:13:50.643Z,16.10
2017-07-25T12:16:18.115Z,16.10
2017-07-25T12:18:45.571Z,16.10
2017-07-25T12:21:24.969Z,16.30
2017-07-25T12:23:52.433Z,16.00
2017-07-25T12:26:19.894Z,15.90
2017-07-25T12:28:47.355Z,15.80
2017-07-25T12:31:14.812Z,15.80
2017-07-25T12:33:42.264Z,15.80
2017-07-25T12:36:09.714Z,15.90
2017-07-25T12:38:37.162Z,15.70
2017-07-25T12:41:04.602Z,15.80
2017-07-25T12:43:32.811Z,15.90
2017-07-25T12:46:00.262Z,15.90
2017-07-25T12:48:27.694Z,15.60
2017-07-25T12:50:55.155Z,15.80
2017-07-25T12:53:22.594Z,15.70
2017-07-25T12:55:50.806Z,15.40
2017-07-25T12:58:18.266Z,15.40
2017-07-25T13:01:09.128Z,15.30
2017-07-25T13:03:37.342Z,15.10
2017-07-25T13:06:04.798Z,15.10
2017-07-25T13:08:32.251Z,15.10
2017-07-25T13:10:59.726Z,15.20
2017-07-25T13:13:27.177Z,15.30
2017-07-25T13:15:54.640Z,15.10
2017-07-25T13:18:22.093Z,15.10
2017-07-25T13:20:49.532Z,15.30
2017-07-25T13:23:16.990Z,15.30
2017-07-25T13:25:44.802Z,15.50
2017-07-25T13:28:13.030Z,15.60
2017-07-25T13:30:41.655Z,15.60
2017-07-25T13:33:09.131Z,15.50
2017-07-25T13:35:37.351Z,15.60
2017-07-25T13:38:04.804Z,15.60
2017-07-25T13:40:33.190Z,15.50
2017-07-25T13:43:00.618Z,15.40
2017-07-25T13:45:28.102Z,15.40
2017-07-25T13:47:55.641Z,15.40
2017-07-25T13:50:23.102Z,15.30
2017-07-25T13:52:50.593Z,15.50
2017-07-25T13:55:18.047Z,15.60
2017-07-25T13:57:45.486Z,15.50
2017-07-25T14:00:12.927Z,15.50
2017-07-25T14:02:40.383Z,15.50
2017-07-25T14:05:07.826Z,15.60
2017-07-25T14:07:35.275Z,15.50
2017-07-25T14:10:02.707Z,15.50
2017-07-25T14:12:30.932Z,15.70
2017-07-25T14:14:58.367Z,15.70
2017-07-25T14:17:25.810Z,15.90
2017-07-25T14:19:53.249Z,15.70
2017-07-25T14:22:21.471Z,15.70
2017-07-25T14:24:48.911Z,15.70
2017-07-25T14:27:16.350Z,15.70
2017-07-25T14:29:43.803Z,15.80
2017-07-25T14:32:12.014Z,15.90
2017-07-25T14:34:39.471Z,15.80
2017-07-25T14:37:06.910Z,16.20
2017-07-25T14:39:34.347Z,16.10
2017-07-25T14:42:01.803Z,16.10
2017-07-25T14:44:29.259Z,16.50
2017-07-25T14:46:57.474Z,16.60
2017-07-25T14:49:24.930Z,16.60
2017-07-25T14:51:52.379Z,16.50
2017-07-25T14:54:19.820Z,16.50
2017-07-25T14:56:47.287Z,16.10
2017-07-25T14:59:14.738Z,16.00
2017-07-25T15:01:42.179Z,16.10
2017-07-25T15:04:09.618Z,15.90
2017-07-25T15:06:37.835Z,16.10
2017-07-25T15:09:05.297Z,16.10
2017-07-25T15:11:32.755Z,16.10
2017-07-25T15:14:00.198Z,16.10
2017-07-25T15:16:27.654Z,16.00
2017-07-25T15:18:55.094Z,15.50
2017-07-25T15:21:22.543Z,15.50
2017-07-25T15:23:49.986Z,15.70
2017-07-25T15:26:17.427Z,15.80
2017-07-25T15:28:44.870Z,16.00
2017-07-25T15:31:12.302Z,16.10
2017-07-25T15:33:39.821Z,15.90
2017-07-25T15:36:07.255Z,15.80
2017-07-25T15:38:35.480Z,16.00
2017-07-25T15:41:02.935Z,16.00
2017-07-25T15:43:31.190Z,16.10
2017-07-25T15:45:58.642Z,16.00
2017-07-25T15:48:26.099Z,16.00
2017-07-25T15:50:53.658Z,15.90
2017-07-25T15:53:21.095Z,15.80
2017-07-25T15:55:48.534Z,15.90
2017-07-25T15:58:16.743Z,16.00
2017-07-25T16:00:44.199Z,16.00
2017-07-25T16:03:11.644Z,15.90
2017-07-25T16:05:39.089Z,15.90
2017-07-25T16:08:06.531Z,15.90
2017-07-25T16:10:33.983Z,16.00
2017-07-25T16:13:01.435Z,16.10
2017-07-25T16:15:28.943Z,16.10
2017-07-25T16:17:56.375Z,15.90
2017-07-25T16:20:24.584Z,15.90
2017-07-25T16:22:52.031Z,15.90
2017-07-25T16:25:19.467Z,15.90
2017-07-25T16:27:47.682Z,16.10
2017-07-25T16:30:15.132Z,16.00
2017-07-25T16:32:42.572Z,16.10
2017-07-25T16:35:10.015Z,16.10
2017-07-25T16:37:38.226Z,16.20
2017-07-25T16:40:05.674Z,16.20
2017-07-25T16:42:33.115Z,16.10
2017-07-25T16:45:00.555Z,15.90
2017-07-25T16:47:28.766Z,15.50
2017-07-25T16:49:56.228Z,15.50
2017-07-25T16:52:23.666Z,15.30
2017-07-25T16:54:51.123Z,15.30
2017-07-25T16:57:18.559Z,15.40
2017-07-25T16:59:46.007Z,15.30
2017-07-25T17:02:14.216Z,15.20
2017-07-25T17:04:41.662Z,15.10
2017-07-25T17:07:09.103Z,15.10
2017-07-25T17:09:37.311Z,15.10
2017-07-25T17:12:04.766Z,15.10
2017-07-25T17:14:32.206Z,15.10
2017-07-25T17:16:59.646Z,15.10
2017-07-25T17:19:27.099Z,15.10
2017-07-25T17:21:55.306Z,15.10
2017-07-25T17:24:22.751Z,15.10
2017-07-25T17:26:50.195Z,15.20
2017-07-25T17:29:17.635Z,15.20
2017-07-25T17:31:45.852Z,15.10
2017-07-25T17:34:13.300Z,15.10
2017-07-25T17:36:40.761Z,14.80
2017-07-25T17:39:08.217Z,14.90
2017-07-25T17:41:35.664Z,14.70
2017-07-25T17:44:03.107Z,14.70
2017-07-25T17:46:30.543Z,14.70
2017-07-25T17:48:58.755Z,14.70
2017-07-25T17:51:26.206Z,14.70
2017-07-25T17:53:53.646Z,14.70
2017-07-25T17:56:21.095Z,14.60
2017-07-25T17:58:48.563Z,14.80
2017-07-25T18:01:16.006Z,14.80
2017-07-25T18:03:43.452Z,14.80
2017-07-25T18:06:11.670Z,14.80
2017-07-25T18:08:39.123Z,14.80
2017-07-25T18:11:06.581Z,14.80
2017-07-25T18:13:34.023Z,14.80
2017-07-25T18:16:01.467Z,14.80
2017-07-25T18:18:28.907Z,14.80
2017-07-25T18:20:57.119Z,14.70
2017-07-25T18:23:24.627Z,14.70
2017-07-25T18:25:52.078Z,14.80
2017-07-25T18:28:19.525Z,14.80
2017-07-25T18:30:46.961Z,14.80
2017-07-25T18:33:14.418Z,14.70
2017-07-25T18:35:41.866Z,14.70
2017-07-25T18:38:09.314Z,14.70
2017-07-25T18:40:36.760Z,14.70
2017-07-25T18:43:04.210Z,14.70
2017-07-25T18:45:31.650Z,14.70
2017-07-25T18:47:59.099Z,14.60
2017-07-25T18:50:27.315Z,14.60
2017-07-25T18:52:54.795Z,14.60
2017-07-25T18:55:22.242Z,14.60
2017-07-25T18:57:49.682Z,14.60
2017-07-25T19:00:17.139Z,14.50
2017-07-25T19:02:44.589Z,14.50
2017-07-25T19:05:12.043Z,14.50
2017-07-25T19:07:39.480Z,14.50
2017-07-25T19:10:06.922Z,14.50
2017-07-25T19:12:35.135Z,14.40
2017-07-25T19:15:02.591Z,14.40
2017-07-25T19:17:30.035Z,14.50
2017-07-25T19:19:57.484Z,14.50
2017-07-25T19:22:24.925Z,14.50
2017-07-25T19:24:52.395Z,14.40
2017-07-25T19:27:19.836Z,14.50
2017-07-25T19:29:48.046Z,14.50
2017-07-25T19:32:15.505Z,14.50
2017-07-25T19:34:42.939Z,14.50
2017-07-25T19:37:10.380Z,14.50
2017-07-25T19:39:38.588Z,14.60
2017-07-25T19:42:06.049Z,14.50
2017-07-25T19:44:33.504Z,14.60
2017-07-25T19:47:00.959Z,14.60
2017-07-25T19:49:28.399Z,14.60
2017-07-25T19:51:55.922Z,14.60
2017-07-25T19:54:23.350Z,14.60
2017-07-25T19:56:50.806Z,14.60
2017-07-25T19:59:18.256Z,14.60
2017-07-25T20:01:46.551Z,14.60
2017-07-25T20:04:14.006Z,14.60
2017-07-25T20:06:41.435Z,14.60
2017-07-25T20:09:08.885Z,14.60
2017-07-25T20:11:36.327Z,14.60
2017-07-25T20:14:03.795Z,14.60
2017-07-25T20:16:31.251Z,14.50
2017-07-25T20:18:58.706Z,14.50
2017-07-25T20:21:26.151Z,14.50
2017-07-25T20:23:53.623Z,14.60
2017-07-25T20:26:21.070Z,14.60
2017-07-25T20:28:48.506Z,14.60
2017-07-25T20:31:15.951Z,14.50
2017-07-25T20:33:44.167Z,14.50
2017-07-25T20:36:11.619Z,14.50
2017-07-25T20:38:39.074Z,14.70
2017-07-25T20:41:06.530Z,14.60
2017-07-25T20:43:33.980Z,14.50
2017-07-25T20:46:01.423Z,14.60
2017-07-25T20:48:28.863Z,14.60
2017-07-25T20:50:56.303Z,14.60
2017-07-25T20:53:23.743Z,14.60
2017-07-25T20:55:51.208Z,14.60
2017-07-25T20:58:18.656Z,14.60
2017-07-25T21:00:46.099Z,14.60
2017-07-25T21:03:13.547Z,14.60
2017-07-25T21:05:40.988Z,14.60
2017-07-25T21:08:08.473Z,14.50
2017-07-25T21:10:35.931Z,14.50
2017-07-25T21:13:03.375Z,14.50
2017-07-25T21:15:30.815Z,14.50
2017-07-25T21:17:58.275Z,14.50
2017-07-25T21:20:25.726Z,14.50
2017-07-25T21:22:53.167Z,14.50
2017-07-25T21:25:20.610Z,14.50
2017-07-25T21:27:48.072Z,14.50
2017-07-25T21:30:15.510Z,14.50
2017-07-25T21:32:43.724Z,14.50
2017-07-25T21:35:11.183Z,14.50
2017-07-25T21:37:38.662Z,14.40
2017-07-25T21:40:06.119Z,14.40
2017-07-25T21:42:33.569Z,14.40
2017-07-25T21:45:01.014Z,14.30
2017-07-25T21:47:28.467Z,14.40
2017-07-25T21:49:55.971Z,14.40
2017-07-25T21:52:24.211Z,14.50
2017-07-25T21:54:51.654Z,14.40
2017-07-25T21:57:19.094Z,14.40
2017-07-25T21:59:46.545Z,14.40
2017-07-25T22:02:25.847Z,14.40
2017-07-25T22:04:57.660Z,14.30
2017-07-25T22:07:25.199Z,14.30
2017-07-25T22:09:52.684Z,14.30
2017-07-25T22:12:20.139Z,14.30
2017-07-25T22:14:47.587Z,14.30
2017-07-25T22:17:15.038Z,14.30
2017-07-25T22:19:42.474Z,14.30
2017-07-25T22:22:09.922Z,14.40
2017-07-25T22:24:37.354Z,14.40
2017-07-25T22:27:05.579Z,14.40
2017-07-25T22:29:33.002Z,14.40
2017-07-25T22:32:01.223Z,14.40
2017-07-25T22:34:28.666Z,14.40
2017-07-25T22:36:56.106Z,14.30
2017-07-25T22:39:23.547Z,14.40
2017-07-25T22:41:50.988Z,14.30
2017-07-25T22:44:19.208Z,14.30
2017-07-25T22:46:46.663Z,14.30
2017-07-25T22:49:14.123Z,14.30
2017-07-25T22:51:41.554Z,14.30
2017-07-25T22:54:08.994Z,14.20
2017-07-25T22:56:37.203Z,14.20
2017-07-25T22:59:04.646Z,14.20
2017-07-25T23:01:32.082Z,14.20
2017-07-25T23:04:00.314Z,14.20
2017-07-25T23:06:27.758Z,14.20
2017-07-25T23:08:55.202Z,14.30
2017-07-25T23:11:22.655Z,14.30
2017-07-25T23:13:50.115Z,14.30
2017-07-25T23:16:17.550Z,14.30
2017-07-25T23:18:44.991Z,14.30
2017-07-25T23:21:13.203Z,14.30
2017-07-25T23:23:40.642Z,14.30
2017-07-25T23:26:08.087Z,14.30
2017-07-25T23:28:35.526Z,14.30
2017-07-25T23:31:03.767Z,14.20
2017-07-25T23:33:31.207Z,14.20
2017-07-25T23:35:58.654Z,14.30
2017-07-25T23:38:26.111Z,14.30
2017-07-25T23:40:53.554Z,14.30
2017-07-25T23:43:20.999Z,14.20
2017-07-25T23:45:48.438Z,14.20
2017-07-25T23:48:16.663Z,14.10
2017-07-25T23:50:44.095Z,14.10
2017-07-25T23:53:11.572Z,14.20
2017-07-25T23:55:38.998Z,14.10
2017-07-25T23:58:06.433Z,14.10
